createdAt,value
2022-09-15T00:04:00.524Z,3.63
2022-09-15T00:08:09.828Z,4.43
2022-09-15T00:12:20.646Z,4.80
2022-09-15T00:16:32.109Z,4.23
2022-09-15T00:20:43.849Z,5.23
2022-09-15T00:24:53.185Z,3.40
2022-09-15T00:29:04.745Z,2.90
2022-09-15T00:33:15.002Z,2.90
2022-09-15T00:37:24.364Z,3.93
2022-09-15T00:41:34.165Z,2.97
2022-09-15T00:45:45.444Z,2.50
2022-09-15T00:50:10.442Z,3.27
2022-09-15T00:54:30.945Z,4.03
2022-09-15T00:58:50.605Z,3.63
2022-09-15T01:03:02.435Z,3.03
2022-09-15T01:07:18.565Z,3.30
2022-09-15T01:11:29.485Z,2.57
2022-09-15T01:15:49.249Z,3.00
2022-09-15T01:20:41.319Z,3.67
2022-09-15T01:25:06.497Z,5.57
2022-09-15T01:35:06.537Z,5.40
2022-09-15T01:39:39.158Z,4.37
2022-09-15T01:48:53.902Z,3.73
2022-09-15T01:53:25.586Z,3.90
2022-09-15T01:57:50.145Z,5.97
2022-09-15T02:02:10.522Z,4.10
2022-09-15T02:06:26.525Z,5.73
2022-09-15T02:10:45.785Z,5.53
2022-09-15T02:15:03.944Z,5.80
2022-09-15T02:19:22.241Z,5.77
2022-09-15T02:28:18.665Z,7.00
2022-09-15T02:32:31.824Z,7.43
2022-09-15T02:36:57.865Z,7.43
2022-09-15T02:51:35.005Z,8.17
2022-09-15T02:55:55.185Z,7.37
2022-09-15T03:00:21.802Z,6.83
2022-09-15T03:04:33.344Z,6.53
2022-09-15T03:27:06.825Z,8.67
2022-09-15T04:32:57.770Z,16.30
2022-09-15T05:05:35.225Z,23.73
2022-09-15T05:09:58.849Z,25.97
2022-09-15T05:14:10.204Z,26.87
2022-09-15T05:32:06.406Z,28.00
2022-09-15T05:41:08.625Z,28.23
2022-09-15T05:45:52.948Z,26.93
2022-09-15T05:50:31.566Z,28.80
2022-09-15T05:54:41.005Z,29.83
2022-09-15T06:03:38.447Z,29.73
2022-09-15T06:17:39.986Z,23.70
2022-09-15T06:50:11.505Z,16.60
2022-09-15T06:54:20.709Z,15.93
2022-09-15T06:58:29.824Z,16.17
2022-09-15T07:02:39.287Z,14.13
2022-09-15T07:06:50.704Z,14.00
2022-09-15T07:11:00.545Z,16.27
2022-09-15T07:15:11.049Z,16.87
2022-09-15T07:19:19.946Z,15.83
2022-09-15T07:23:31.866Z,16.93
2022-09-15T07:27:40.826Z,13.83
2022-09-15T07:31:50.227Z,13.27
2022-09-15T07:36:00.024Z,12.17
2022-09-15T07:40:12.424Z,12.60
2022-09-15T07:44:21.606Z,11.90
2022-09-15T07:48:30.944Z,10.57
2022-09-15T07:52:40.023Z,11.07
2022-09-15T07:56:50.546Z,9.73
2022-09-15T08:01:04.265Z,9.57
2022-09-15T08:05:13.546Z,7.17
2022-09-15T08:09:22.944Z,8.40
2022-09-15T08:13:33.485Z,6.37
2022-09-15T08:17:42.504Z,5.53
2022-09-15T08:21:51.647Z,7.07
2022-09-15T08:26:00.771Z,6.60
2022-09-15T08:30:12.603Z,5.20
2022-09-15T08:34:21.925Z,4.03
2022-09-15T08:38:31.145Z,7.40
2022-09-15T08:42:44.909Z,7.73
2022-09-15T08:47:02.343Z,7.97
2022-09-15T08:51:21.063Z,5.10
2022-09-15T08:55:39.083Z,7.63
2022-09-15T08:59:48.243Z,9.83
2022-09-15T09:04:20.765Z,6.20
2022-09-15T09:08:56.486Z,6.23
2022-09-15T09:13:19.106Z,5.60
2022-09-15T09:17:52.644Z,5.60
2022-09-15T09:22:33.503Z,5.93
2022-09-15T09:26:42.627Z,6.13
2022-09-15T09:30:51.913Z,6.70
2022-09-15T09:35:07.111Z,5.80
2022-09-15T09:39:17.664Z,5.07
2022-09-15T09:43:28.251Z,4.30
2022-09-15T09:47:40.843Z,4.50
2022-09-15T09:51:54.125Z,4.30
2022-09-15T09:56:25.685Z,4.83
2022-09-15T10:00:36.485Z,5.07
2022-09-15T10:04:47.174Z,4.40
2022-09-15T10:08:58.748Z,6.03
2022-09-15T10:13:13.666Z,5.20
2022-09-15T10:17:25.252Z,6.33
2022-09-15T10:21:34.506Z,6.03
2022-09-15T10:25:58.742Z,5.07
2022-09-15T10:30:21.206Z,3.70
2022-09-15T10:34:34.687Z,4.03
2022-09-15T10:38:54.789Z,6.90
2022-09-15T10:43:17.804Z,4.40
2022-09-15T10:47:40.805Z,4.33
2022-09-15T10:52:02.510Z,4.03
2022-09-15T10:56:20.765Z,5.53
2022-09-15T11:00:37.876Z,5.77
2022-09-15T11:05:11.965Z,4.00
2022-09-15T11:09:23.825Z,3.27
2022-09-15T11:13:47.027Z,4.77
2022-09-15T11:18:14.227Z,4.17
2022-09-15T11:22:29.385Z,3.60
2022-09-15T11:26:43.945Z,3.40
2022-09-15T11:30:58.839Z,3.07
2022-09-15T11:35:44.645Z,7.10
2022-09-15T11:40:02.277Z,3.30
2022-09-15T11:44:25.946Z,3.87
2022-09-15T11:48:46.848Z,3.10
2022-09-15T11:53:00.588Z,2.53
2022-09-15T11:57:19.407Z,5.40
2022-09-15T12:01:34.361Z,4.47
2022-09-15T12:05:48.885Z,4.03
2022-09-15T12:10:05.826Z,3.73
2022-09-15T12:14:19.449Z,3.60
2022-09-15T12:18:39.942Z,2.50
2022-09-15T12:22:57.388Z,4.73
2022-09-15T12:27:06.746Z,3.00
2022-09-15T12:31:29.370Z,4.13
2022-09-15T12:35:38.625Z,2.63
2022-09-15T12:39:48.925Z,4.33
2022-09-15T12:44:00.936Z,3.97
2022-09-15T12:48:21.028Z,3.37
2022-09-15T12:52:30.907Z,4.27
2022-09-15T12:56:40.007Z,5.87
2022-09-15T13:01:16.614Z,4.20
2022-09-15T13:06:13.548Z,3.17
2022-09-15T13:10:39.847Z,2.57
2022-09-15T13:14:50.767Z,3.83
2022-09-15T13:19:18.194Z,2.27
2022-09-15T13:24:04.226Z,3.27
2022-09-15T13:32:45.306Z,2.23
2022-09-15T13:41:58.685Z,2.13
2022-09-15T13:46:19.650Z,3.23
2022-09-15T13:51:04.410Z,4.17
2022-09-15T13:55:26.565Z,2.97
2022-09-15T13:59:36.447Z,2.63
2022-09-15T14:03:51.085Z,2.33
2022-09-15T14:08:03.147Z,3.93
2022-09-15T14:12:15.409Z,5.63
2022-09-15T14:16:36.110Z,3.97
2022-09-15T14:20:58.664Z,2.90
2022-09-15T14:25:10.608Z,3.00
2022-09-15T14:29:22.390Z,4.73
2022-09-15T14:33:38.092Z,3.67
2022-09-15T14:37:52.673Z,3.63
2022-09-15T14:42:12.667Z,3.37
2022-09-15T14:46:21.687Z,3.70
2022-09-15T14:50:33.630Z,4.03
2022-09-15T14:54:44.485Z,4.30
2022-09-15T14:58:59.627Z,4.60
2022-09-15T15:03:27.908Z,5.40
2022-09-15T15:07:40.267Z,5.53
2022-09-15T15:11:54.827Z,4.00
2022-09-15T15:16:08.646Z,4.03
2022-09-15T15:20:21.241Z,3.70
2022-09-15T15:24:30.368Z,4.80
2022-09-15T15:28:40.986Z,4.13
2022-09-15T15:32:50.068Z,3.40
2022-09-15T15:37:04.629Z,3.30
2022-09-15T15:41:21.711Z,4.33
2022-09-15T15:45:34.791Z,4.20
2022-09-15T15:50:11.739Z,3.60
2022-09-15T15:54:15.907Z,3.43
2022-09-15T15:58:25.307Z,4.57
2022-09-15T16:02:35.968Z,5.87
2022-09-15T16:06:46.206Z,3.20
2022-09-15T16:10:56.865Z,3.40
2022-09-15T16:15:13.628Z,3.67
2022-09-15T16:19:24.147Z,2.80
2022-09-15T16:23:34.606Z,5.73
2022-09-15T16:27:43.845Z,4.23
2022-09-15T16:31:53.322Z,4.67
2022-09-15T16:36:07.312Z,4.03
2022-09-15T16:40:18.209Z,3.50
2022-09-15T16:44:27.575Z,4.73
2022-09-15T16:48:36.668Z,3.67
2022-09-15T16:52:48.626Z,4.00
2022-09-15T16:56:57.946Z,3.40
2022-09-15T17:01:07.858Z,2.63
2022-09-15T17:05:25.286Z,2.60
2022-09-15T17:09:47.289Z,2.90
2022-09-15T17:13:56.786Z,3.03
2022-09-15T17:18:07.113Z,2.60
2022-09-15T17:22:47.028Z,3.20
2022-09-15T17:26:57.907Z,2.97
2022-09-15T17:31:13.612Z,4.57
2022-09-15T17:35:24.985Z,5.10
2022-09-15T17:39:35.725Z,2.50
2022-09-15T17:43:46.602Z,2.93
2022-09-15T17:47:56.205Z,2.27
2022-09-15T17:52:05.429Z,4.20
2022-09-15T17:56:14.585Z,5.37
2022-09-15T18:00:26.527Z,3.90
2022-09-15T18:04:35.528Z,3.27
2022-09-15T18:08:44.530Z,4.23
2022-09-15T18:12:55.615Z,4.30
2022-09-15T18:17:06.527Z,2.97
2022-09-15T18:21:25.485Z,3.97
2022-09-15T18:25:36.866Z,1.93
2022-09-15T18:29:45.908Z,3.83
2022-09-15T18:33:56.369Z,4.83
2022-09-15T18:38:05.405Z,2.67
2022-09-15T18:42:14.427Z,2.53
2022-09-15T18:46:23.583Z,3.57
2022-09-15T18:50:34.191Z,1.70
2022-09-15T18:54:43.385Z,3.00
2022-09-15T18:58:54.949Z,4.23
2022-09-15T19:03:05.607Z,3.83
2022-09-15T19:07:16.205Z,2.87
2022-09-15T19:11:25.286Z,6.40
2022-09-15T19:15:35.527Z,3.20
2022-09-15T19:19:46.687Z,3.77
2022-09-15T19:23:59.906Z,3.83
2022-09-15T19:28:08.807Z,4.63
2022-09-15T19:32:19.407Z,3.03
2022-09-15T19:36:29.211Z,3.57
2022-09-15T19:40:40.047Z,3.00
2022-09-15T19:44:49.763Z,4.30
2022-09-15T19:48:59.608Z,2.53
2022-09-15T19:53:10.174Z,4.73
2022-09-15T19:57:22.947Z,2.47
2022-09-15T20:01:33.272Z,2.67
2022-09-15T20:05:42.401Z,3.73
2022-09-15T20:09:54.859Z,1.83
2022-09-15T20:14:08.018Z,2.63
2022-09-15T20:18:17.499Z,2.70
2022-09-15T20:22:26.520Z,2.10
2022-09-15T20:26:37.045Z,3.60
2022-09-15T20:30:47.676Z,2.53
2022-09-15T20:34:56.959Z,5.40
2022-09-15T20:39:09.065Z,4.03
2022-09-15T20:43:18.207Z,4.37
2022-09-15T20:47:29.167Z,3.60
2022-09-15T20:51:38.247Z,1.83
2022-09-15T20:55:53.647Z,2.67
2022-09-15T21:00:05.110Z,2.93
2022-09-15T21:04:15.908Z,2.13
2022-09-15T21:08:25.046Z,3.47
2022-09-15T21:12:34.187Z,4.53
2022-09-15T21:16:44.177Z,2.47
2022-09-15T21:20:59.245Z,3.97
2022-09-15T21:25:09.026Z,2.33
2022-09-15T21:29:18.128Z,3.53
2022-09-15T21:33:28.286Z,4.70
2022-09-15T21:37:39.646Z,5.53
2022-09-15T21:41:48.787Z,3.03
2022-09-15T21:45:58.081Z,2.57
2022-09-15T21:50:08.665Z,5.53
2022-09-15T21:54:19.367Z,3.33
2022-09-15T21:58:32.387Z,3.40
2022-09-15T22:02:41.513Z,2.47
2022-09-15T22:06:51.128Z,4.90
2022-09-15T22:11:02.788Z,1.80
2022-09-15T22:15:12.587Z,3.83
2022-09-15T22:19:21.887Z,3.00
2022-09-15T22:23:30.946Z,2.13
2022-09-15T22:27:41.608Z,3.90
2022-09-15T22:31:50.741Z,3.90
2022-09-15T22:36:00.427Z,2.50
2022-09-15T22:40:10.637Z,3.63
2022-09-15T22:44:22.087Z,5.67
2022-09-15T22:48:31.386Z,3.53
2022-09-15T22:52:40.528Z,3.10
2022-09-15T22:56:49.546Z,6.37
2022-09-15T23:01:06.572Z,3.37
2022-09-15T23:05:15.807Z,4.37
2022-09-15T23:09:24.798Z,3.33
2022-09-15T23:13:35.047Z,3.60
2022-09-15T23:17:45.629Z,3.73
2022-09-15T23:21:54.787Z,4.43
2022-09-15T23:26:04.468Z,3.13
2022-09-15T23:30:14.825Z,7.97
2022-09-15T23:34:25.589Z,3.03
2022-09-15T23:38:37.849Z,6.93
2022-09-15T23:42:46.831Z,4.53
2022-09-15T23:46:55.996Z,4.83
2022-09-15T23:51:06.913Z,3.03
2022-09-15T23:55:16.227Z,4.80
2022-09-15T23:59:25.369Z,2.93
